sensor_id;sensor_type;location;lat;lon;timestamp;pressure;altitude;pressure_sealevel;temperature;humidity
52983;BME280;48698;45.736;13.926;2023-03-03T00:04:35;97573.66;;;4.75;100.00
52983;BME280;48698;45.736;13.926;2023-03-03T00:09:38;97385.38;;;3.51;100.00
52983;BME280;48698;45.736;13.926;2023-03-03T00:14:42;97584.97;;;4.79;100.00
52983;BME280;48698;45.736;13.926;2023-03-03T00:19:45;97443.06;;;3.85;100.00
52983;BME280;48698;45.736;13.926;2023-03-03T00:24:49;97383.94;;;3.39;100.00
52983;BME280;48698;45.736;13.926;2023-03-03T00:29:55;97477.50;;;4.06;100.00
52983;BME280;48698;45.736;13.926;2023-03-03T00:35:15;97530.47;;;4.24;100.00
52983;BME280;48698;45.736;13.926;2023-03-03T00:40:38;97556.75;;;4.54;100.00
52983;BME280;48698;45.736;13.926;2023-03-03T00:45:45;97432.81;;;3.77;100.00
52983;BME280;48698;45.736;13.926;2023-03-03T00:50:51;97307.09;;;3.02;100.00
52983;BME280;48698;45.736;13.926;2023-03-03T00:55:56;97552.25;;;4.58;100.00
52983;BME280;48698;45.736;13.926;2023-03-03T01:01:01;97397.31;;;3.62;100.00
52983;BME280;48698;45.736;13.926;2023-03-03T01:06:05;97550.69;;;4.51;100.00
52983;BME280;48698;45.736;13.926;2023-03-03T01:11:21;97534.78;;;4.57;100.00
52983;BME280;48698;45.736;13.926;2023-03-03T01:16:25;97368.59;;;3.56;100.00
52983;BME280;48698;45.736;13.926;2023-03-03T01:21:28;97461.44;;;4.17;100.00
52983;BME280;48698;45.736;13.926;2023-03-03T01:26:32;97225.25;;;2.91;100.00
52983;BME280;48698;45.736;13.926;2023-03-03T01:31:35;97199.31;;;2.79;100.00
52983;BME280;48698;45.736;13.926;2023-03-03T01:36:39;97395.38;;;4.00;100.00
52983;BME280;48698;45.736;13.926;2023-03-03T01:41:43;97381.03;;;3.81;100.00
52983;BME280;48698;45.736;13.926;2023-03-03T01:47:08;97504.13;;;4.54;100.00
52983;BME280;48698;45.736;13.926;2023-03-03T01:52:33;97390.69;;;4.09;100.00
52983;BME280;48698;45.736;13.926;2023-03-03T01:57:45;97418.91;;;4.32;100.00
52983;BME280;48698;45.736;13.926;2023-03-03T02:03:04;97188.06;;;3.06;100.00
52983;BME280;48698;45.736;13.926;2023-03-03T02:08:10;97396.06;;;4.34;100.00
52983;BME280;48698;45.736;13.926;2023-03-03T02:13:17;97410.84;;;4.38;100.00
52983;BME280;48698;45.736;13.926;2023-03-03T02:18:30;97369.09;;;4.28;100.00
52983;BME280;48698;45.736;13.926;2023-03-03T02:24:20;97460.66;;;5.00;100.00
52983;BME280;48698;45.736;13.926;2023-03-03T02:29:02;97362.72;;;4.36;100.00
52983;BME280;48698;45.736;13.926;2023-03-03T02:34:06;97175.31;;;3.23;100.00
52983;BME280;48698;45.736;13.926;2023-03-03T02:39:24;97452.13;;;4.92;100.00
52983;BME280;48698;45.736;13.926;2023-03-03T02:44:30;97382.69;;;4.42;100.00
52983;BME280;48698;45.736;13.926;2023-03-03T02:49:35;97450.88;;;5.03;100.00
52983;BME280;48698;45.736;13.926;2023-03-03T02:54:38;97458.22;;;4.94;100.00
52983;BME280;48698;45.736;13.926;2023-03-03T02:59:42;97166.81;;;3.44;100.00
52983;BME280;48698;45.736;13.926;2023-03-03T03:04:46;97136.00;;;3.22;100.00
52983;BME280;48698;45.736;13.926;2023-03-03T03:09:49;97366.91;;;4.69;100.00
52983;BME280;48698;45.736;13.926;2023-03-03T03:15:01;97439.91;;;5.17;100.00
52983;BME280;48698;45.736;13.926;2023-03-03T03:20:06;97361.84;;;4.63;100.00
52983;BME280;48698;45.736;13.926;2023-03-03T03:25:11;97180.19;;;3.35;100.00
52983;BME280;48698;45.736;13.926;2023-03-03T03:30:21;97422.06;;;4.99;100.00
52983;BME280;48698;45.736;13.926;2023-03-03T03:35:25;97346.06;;;4.63;100.00
52983;BME280;48698;45.736;13.926;2023-03-03T03:40:29;97273.69;;;4.26;100.00
52983;BME280;48698;45.736;13.926;2023-03-03T03:45:32;97356.41;;;4.69;100.00
52983;BME280;48698;45.736;13.926;2023-03-03T03:50:36;97174.69;;;3.44;100.00
52983;BME280;48698;45.736;13.926;2023-03-03T03:55:50;97359.66;;;4.50;100.00
52983;BME280;48698;45.736;13.926;2023-03-03T04:00:54;97402.56;;;4.78;100.00
52983;BME280;48698;45.736;13.926;2023-03-03T04:05:58;97368.59;;;4.44;100.00
52983;BME280;48698;45.736;13.926;2023-03-03T04:11:01;97256.44;;;3.89;100.00
52983;BME280;48698;45.736;13.926;2023-03-03T04:16:07;97206.28;;;3.41;100.00
52983;BME280;48698;45.736;13.926;2023-03-03T04:21:12;97222.53;;;3.54;100.00
52983;BME280;48698;45.736;13.926;2023-03-03T04:26:15;97389.84;;;4.64;100.00
52983;BME280;48698;45.736;13.926;2023-03-03T04:31:19;97404.91;;;4.87;100.00
52983;BME280;48698;45.736;13.926;2023-03-03T04:36:26;97376.09;;;4.56;100.00
52983;BME280;48698;45.736;13.926;2023-03-03T04:41:40;97400.56;;;4.58;100.00
52983;BME280;48698;45.736;13.926;2023-03-03T04:46:43;97417.69;;;4.72;100.00
52983;BME280;48698;45.736;13.926;2023-03-03T04:51:47;97304.31;;;4.27;100.00
52983;BME280;48698;45.736;13.926;2023-03-03T04:56:50;97396.66;;;4.72;100.00
52983;BME280;48698;45.736;13.926;2023-03-03T05:01:54;97329.84;;;4.23;100.00
52983;BME280;48698;45.736;13.926;2023-03-03T05:06:57;97380.53;;;4.54;100.00
52983;BME280;48698;45.736;13.926;2023-03-03T05:12:02;97398.69;;;4.90;100.00
52983;BME280;48698;45.736;13.926;2023-03-03T05:17:06;97107.31;;;3.16;100.00
52983;BME280;48698;45.736;13.926;2023-03-03T05:22:10;97404.94;;;4.59;100.00
52983;BME280;48698;45.736;13.926;2023-03-03T05:27:14;97140.91;;;3.32;100.00
52983;BME280;48698;45.736;13.926;2023-03-03T05:32:28;97325.41;;;4.51;100.00
52983;BME280;48698;45.736;13.926;2023-03-03T05:37:38;97238.03;;;3.91;100.00
52983;BME280;48698;45.736;13.926;2023-03-03T05:42:45;97405.22;;;5.04;100.00
52983;BME280;48698;45.736;13.926;2023-03-03T05:47:49;97409.72;;;5.01;100.00
52983;BME280;48698;45.736;13.926;2023-03-03T05:52:53;97286.72;;;4.29;100.00
52983;BME280;48698;45.736;13.926;2023-03-03T05:57:56;97340.91;;;4.60;100.00
52983;BME280;48698;45.736;13.926;2023-03-03T06:03:00;97411.44;;;5.02;100.00
52983;BME280;48698;45.736;13.926;2023-03-03T06:08:08;97407.41;;;5.18;100.00
52983;BME280;48698;45.736;13.926;2023-03-03T06:13:11;97424.09;;;5.43;100.00
52983;BME280;48698;45.736;13.926;2023-03-03T06:18:15;97284.09;;;4.55;100.00
52983;BME280;48698;45.736;13.926;2023-03-03T06:23:18;97132.41;;;3.80;100.00
52983;BME280;48698;45.736;13.926;2023-03-03T06:28:22;97446.16;;;5.65;100.00
52983;BME280;48698;45.736;13.926;2023-03-03T06:33:27;97263.94;;;4.55;100.00
52983;BME280;48698;45.736;13.926;2023-03-03T06:38:31;97289.63;;;4.74;100.00
52983;BME280;48698;45.736;13.926;2023-03-03T06:43:35;97456.69;;;6.15;100.00
52983;BME280;48698;45.736;13.926;2023-03-03T06:48:39;97364.09;;;5.76;100.00
52983;BME280;48698;45.736;13.926;2023-03-03T06:53:43;97227.06;;;4.82;100.00
52983;BME280;48698;45.736;13.926;2023-03-03T06:58:47;97258.66;;;5.06;100.00
52983;BME280;48698;45.736;13.926;2023-03-03T07:03:51;97335.41;;;5.44;100.00
52983;BME280;48698;45.736;13.926;2023-03-03T07:08:54;97373.66;;;5.79;100.00
52983;BME280;48698;45.736;13.926;2023-03-03T07:14:00;97347.75;;;5.66;100.00
52983;BME280;48698;45.736;13.926;2023-03-03T07:19:16;97369.59;;;5.45;100.00
52983;BME280;48698;45.736;13.926;2023-03-03T07:24:31;97233.66;;;4.68;100.00
52983;BME280;48698;45.736;13.926;2023-03-03T07:29:36;97439.97;;;5.91;100.00
52983;BME280;48698;45.736;13.926;2023-03-03T07:34:45;97442.88;;;6.08;100.00
52983;BME280;48698;45.736;13.926;2023-03-03T07:39:50;97435.41;;;5.96;100.00
52983;BME280;48698;45.736;13.926;2023-03-03T07:44:58;97254.22;;;4.84;100.00
52983;BME280;48698;45.736;13.926;2023-03-03T07:50:18;97517.03;;;6.47;100.00
52983;BME280;48698;45.736;13.926;2023-03-03T07:55:33;97516.13;;;6.71;100.00
52983;BME280;48698;45.736;13.926;2023-03-03T08:05:43;97516.88;;;6.97;100.00
52983;BME280;48698;45.736;13.926;2023-03-03T08:10:48;97510.16;;;7.11;100.00
52983;BME280;48698;45.736;13.926;2023-03-03T08:16:35;97505.38;;;7.21;100.00
52983;BME280;48698;45.736;13.926;2023-03-03T08:21:51;97506.66;;;7.54;100.00
52983;BME280;48698;45.736;13.926;2023-03-03T08:26:55;97310.03;;;6.34;100.00
52983;BME280;48698;45.736;13.926;2023-03-03T08:31:58;97471.09;;;7.19;100.00
52983;BME280;48698;45.736;13.926;2023-03-03T08:37:02;97455.00;;;7.25;100.00
52983;BME280;48698;45.736;13.926;2023-03-03T08:42:05;97430.19;;;7.08;100.00
52983;BME280;48698;45.736;13.926;2023-03-03T08:47:08;97481.31;;;7.28;100.00
52983;BME280;48698;45.736;13.926;2023-03-03T08:52:12;97425.66;;;6.90;100.00
52983;BME280;48698;45.736;13.926;2023-03-03T08:57:16;97476.00;;;7.28;100.00
52983;BME280;48698;45.736;13.926;2023-03-03T09:02:21;97348.06;;;6.50;100.00
52983;BME280;48698;45.736;13.926;2023-03-03T09:07:25;97478.59;;;7.30;100.00
52983;BME280;48698;45.736;13.926;2023-03-03T09:12:38;97388.75;;;6.45;100.00
52983;BME280;48698;45.736;13.926;2023-03-03T09:17:53;97540.53;;;7.45;100.00
52983;BME280;48698;45.736;13.926;2023-03-03T09:22:57;97434.63;;;6.86;100.00
52983;BME280;48698;45.736;13.926;2023-03-03T09:28:02;97397.13;;;6.78;100.00
52983;BME280;48698;45.736;13.926;2023-03-03T09:33:16;97542.53;;;7.38;100.00
52983;BME280;48698;45.736;13.926;2023-03-03T09:38:31;97506.31;;;6.97;100.00
52983;BME280;48698;45.736;13.926;2023-03-03T09:54:36;97475.00;;;6.19;100.00
52983;BME280;48698;45.736;13.926;2023-03-03T10:05:29;97585.00;;;6.64;100.00
52983;BME280;48698;45.736;13.926;2023-03-03T10:16:09;97594.47;;;6.69;100.00
52983;BME280;48698;45.736;13.926;2023-03-03T10:21:23;97284.03;;;4.83;100.00
52983;BME280;48698;45.736;13.926;2023-03-03T10:32:39;97557.53;;;6.69;100.00
52983;BME280;48698;45.736;13.926;2023-03-03T10:49:13;97605.34;;;7.53;100.00
52983;BME280;48698;45.736;13.926;2023-03-03T11:05:37;97579.56;;;8.82;100.00
52983;BME280;48698;45.736;13.926;2023-03-03T11:10:51;97503.09;;;8.16;100.00
52983;BME280;48698;45.736;13.926;2023-03-03T11:16:14;97607.94;;;8.18;100.00
52983;BME280;48698;45.736;13.926;2023-03-03T11:21:37;97598.59;;;8.32;100.00
52983;BME280;48698;45.736;13.926;2023-03-03T11:31:56;97590.94;;;8.24;100.00
52983;BME280;48698;45.736;13.926;2023-03-03T11:43:02;97601.84;;;7.74;100.00
52983;BME280;48698;45.736;13.926;2023-03-03T11:53:42;97580.91;;;7.90;100.00
52983;BME280;48698;45.736;13.926;2023-03-03T12:04:21;97576.75;;;7.85;100.00
52983;BME280;48698;45.736;13.926;2023-03-03T12:09:42;97458.28;;;7.52;100.00
52983;BME280;48698;45.736;13.926;2023-03-03T12:15:14;97560.69;;;7.89;100.00
52983;BME280;48698;45.736;13.926;2023-03-03T12:26:18;97553.16;;;7.37;100.00
52983;BME280;48698;45.736;13.926;2023-03-03T12:37:09;97559.03;;;7.87;100.00
52983;BME280;48698;45.736;13.926;2023-03-03T12:42:37;97547.47;;;8.09;100.00
52983;BME280;48698;45.736;13.926;2023-03-03T12:47:49;97553.09;;;7.82;100.00
52983;BME280;48698;45.736;13.926;2023-03-03T12:53:00;97575.44;;;7.95;100.00
52983;BME280;48698;45.736;13.926;2023-03-03T13:19:21;97594.63;;;8.20;100.00
52983;BME280;48698;45.736;13.926;2023-03-03T13:24:52;97281.06;;;6.54;100.00
52983;BME280;48698;45.736;13.926;2023-03-03T13:35:31;97560.47;;;8.56;100.00
52983;BME280;48698;45.736;13.926;2023-03-03T13:40:47;97567.00;;;8.67;100.00
52983;BME280;48698;45.736;13.926;2023-03-03T13:46:03;97559.50;;;8.58;100.00
52983;BME280;48698;45.736;13.926;2023-03-03T13:51:39;97566.72;;;8.13;100.00
52983;BME280;48698;45.736;13.926;2023-03-03T14:07:56;97495.53;;;7.46;100.00
52983;BME280;48698;45.736;13.926;2023-03-03T14:13:10;97418.84;;;7.68;100.00
52983;BME280;48698;45.736;13.926;2023-03-03T14:18:23;97557.59;;;8.42;100.00
52983;BME280;48698;45.736;13.926;2023-03-03T14:23:59;97550.03;;;8.32;100.00
52983;BME280;48698;45.736;13.926;2023-03-03T14:29:19;97474.97;;;7.53;100.00
52983;BME280;48698;45.736;13.926;2023-03-03T14:34:39;97483.28;;;7.86;100.00
52983;BME280;48698;45.736;13.926;2023-03-03T14:39:47;97343.28;;;6.82;100.00
52983;BME280;48698;45.736;13.926;2023-03-03T14:44:54;97377.66;;;7.02;100.00
52983;BME280;48698;45.736;13.926;2023-03-03T14:49:57;97445.44;;;7.85;100.00
52983;BME280;48698;45.736;13.926;2023-03-03T14:55:30;97512.38;;;8.26;100.00
52983;BME280;48698;45.736;13.926;2023-03-03T15:00:35;97455.03;;;8.06;100.00
52983;BME280;48698;45.736;13.926;2023-03-03T15:05:47;97535.94;;;8.12;100.00
52983;BME280;48698;45.736;13.926;2023-03-03T15:10:51;97493.09;;;7.42;100.00
52983;BME280;48698;45.736;13.926;2023-03-03T15:21:04;97484.81;;;7.49;100.00
52983;BME280;48698;45.736;13.926;2023-03-03T15:26:30;97516.41;;;7.94;100.00
52983;BME280;48698;45.736;13.926;2023-03-03T15:36:46;97510.31;;;7.92;100.00
52983;BME280;48698;45.736;13.926;2023-03-03T15:42:14;97536.81;;;7.70;100.00
52983;BME280;48698;45.736;13.926;2023-03-03T15:52:49;97518.78;;;7.38;100.00
52983;BME280;48698;45.736;13.926;2023-03-03T16:03:30;97361.19;;;6.30;100.00
52983;BME280;48698;45.736;13.926;2023-03-03T16:08:51;97551.56;;;7.33;100.00
52983;BME280;48698;45.736;13.926;2023-03-03T16:35:30;97460.34;;;6.11;100.00
52983;BME280;48698;45.736;13.926;2023-03-03T16:40:51;97501.06;;;6.27;100.00
52983;BME280;48698;45.736;13.926;2023-03-03T16:56:39;97592.13;;;6.37;100.00
52983;BME280;48698;45.736;13.926;2023-03-03T17:01:58;97560.44;;;5.89;100.00
52983;BME280;48698;45.736;13.926;2023-03-03T17:07:18;97619.91;;;6.22;100.00
52983;BME280;48698;45.736;13.926;2023-03-03T17:12:46;97614.16;;;6.10;100.00
52983;BME280;48698;45.736;13.926;2023-03-03T17:28:37;97612.94;;;5.95;100.00
52983;BME280;48698;45.736;13.926;2023-03-03T17:33:59;97536.81;;;5.32;100.00
52983;BME280;48698;45.736;13.926;2023-03-03T17:50:10;97559.31;;;5.42;100.00
52983;BME280;48698;45.736;13.926;2023-03-03T17:55:29;97654.03;;;6.01;100.00
52983;BME280;48698;45.736;13.926;2023-03-03T18:11:58;97630.19;;;5.50;100.00
52983;BME280;48698;45.736;13.926;2023-03-03T18:22:49;97637.88;;;5.84;100.00
52983;BME280;48698;45.736;13.926;2023-03-03T18:33:08;97651.69;;;6.18;100.00
52983;BME280;48698;45.736;13.926;2023-03-03T18:48:48;97664.78;;;6.21;100.00
52983;BME280;48698;45.736;13.926;2023-03-03T18:54:24;97678.88;;;6.20;100.00
52983;BME280;48698;45.736;13.926;2023-03-03T19:04:47;97664.47;;;6.04;100.00
52983;BME280;48698;45.736;13.926;2023-03-03T19:15:44;97691.78;;;6.03;100.00
52983;BME280;48698;45.736;13.926;2023-03-03T19:21:38;97667.63;;;6.15;100.00
52983;BME280;48698;45.736;13.926;2023-03-03T19:37:39;97689.50;;;6.18;100.00
52983;BME280;48698;45.736;13.926;2023-03-03T19:54:44;97691.13;;;5.95;100.00
52983;BME280;48698;45.736;13.926;2023-03-03T19:59:59;97586.50;;;5.15;100.00
52983;BME280;48698;45.736;13.926;2023-03-03T20:05:33;97720.44;;;5.86;100.00
52983;BME280;48698;45.736;13.926;2023-03-03T20:21:53;97705.50;;;5.85;100.00
52983;BME280;48698;45.736;13.926;2023-03-03T20:27:13;97687.19;;;5.52;100.00
52983;BME280;48698;45.736;13.926;2023-03-03T20:32:40;97715.66;;;5.69;100.00
52983;BME280;48698;45.736;13.926;2023-03-03T21:04:21;97638.28;;;5.71;100.00
52983;BME280;48698;45.736;13.926;2023-03-03T21:14:31;97638.81;;;5.83;100.00
52983;BME280;48698;45.736;13.926;2023-03-03T21:19:35;97641.84;;;5.97;100.00
52983;BME280;48698;45.736;13.926;2023-03-03T21:24:55;97716.09;;;6.37;100.00
52983;BME280;48698;45.736;13.926;2023-03-03T21:30:13;97705.06;;;6.00;100.00
52983;BME280;48698;45.736;13.926;2023-03-03T21:35:20;97647.59;;;5.82;100.00
52983;BME280;48698;45.736;13.926;2023-03-03T21:40:27;97723.63;;;6.23;100.00
52983;BME280;48698;45.736;13.926;2023-03-03T21:45:31;97671.16;;;5.88;100.00
52983;BME280;48698;45.736;13.926;2023-03-03T21:50:35;97651.25;;;5.78;100.00
52983;BME280;48698;45.736;13.926;2023-03-03T21:55:43;97695.28;;;6.30;100.00
52983;BME280;48698;45.736;13.926;2023-03-03T22:00:50;97492.22;;;5.00;100.00
52983;BME280;48698;45.736;13.926;2023-03-03T22:05:54;97428.41;;;4.65;100.00
52983;BME280;48698;45.736;13.926;2023-03-03T22:10:58;97659.25;;;5.74;100.00
52983;BME280;48698;45.736;13.926;2023-03-03T22:16:01;97466.88;;;4.69;100.00
52983;BME280;48698;45.736;13.926;2023-03-03T22:21:05;97708.03;;;6.15;100.00
52983;BME280;48698;45.736;13.926;2023-03-03T22:26:09;97657.09;;;6.15;100.00
52983;BME280;48698;45.736;13.926;2023-03-03T22:31:12;97510.19;;;5.41;100.00
52983;BME280;48698;45.736;13.926;2023-03-03T22:36:16;97625.75;;;6.06;100.00
52983;BME280;48698;45.736;13.926;2023-03-03T22:41:21;97698.47;;;6.64;100.00
52983;BME280;48698;45.736;13.926;2023-03-03T22:46:25;97525.09;;;5.95;100.00
52983;BME280;48698;45.736;13.926;2023-03-03T22:51:29;97499.44;;;5.47;100.00
52983;BME280;48698;45.736;13.926;2023-03-03T22:56:33;97629.09;;;6.11;100.00
52983;BME280;48698;45.736;13.926;2023-03-03T23:01:36;97423.47;;;4.83;100.00
52983;BME280;48698;45.736;13.926;2023-03-03T23:06:47;97639.06;;;5.73;100.00
52983;BME280;48698;45.736;13.926;2023-03-03T23:11:52;97437.50;;;4.55;100.00
52983;BME280;48698;45.736;13.926;2023-03-03T23:16:55;97551.41;;;5.14;100.00
52983;BME280;48698;45.736;13.926;2023-03-03T23:21:59;97661.03;;;6.02;100.00
52983;BME280;48698;45.736;13.926;2023-03-03T23:27:03;97510.78;;;5.23;100.00
52983;BME280;48698;45.736;13.926;2023-03-03T23:32:06;97616.97;;;6.05;100.00
52983;BME280;48698;45.736;13.926;2023-03-03T23:37:10;97742.47;;;6.37;100.00
52983;BME280;48698;45.736;13.926;2023-03-03T23:42:20;97677.03;;;5.68;100.00
52983;BME280;48698;45.736;13.926;2023-03-03T23:47:23;97600.31;;;5.23;100.00
52983;BME280;48698;45.736;13.926;2023-03-03T23:52:27;97471.91;;;4.18;100.00
52983;BME280;48698;45.736;13.926;2023-03-03T23:57:31;97714.91;;;5.93;100.00
